General Aviation Weather

Text Reports

Enter one or more of the following location identifiers separated by a space:

Zip Code, Four-Character ICAO or Three-Character IATA airport codes.

METAR - Aviation Routine Weather Report
KY51 - Viroqua, Wisconsin
Updated at 1:35 AM GMT on November 22, 2014 (7:35 PM CST):
METAR KY51 220135Z AUTO 18010G14KT 10SM OVC015 M02/M11 A3008 RMK AO1 T10191106
TAF - Terminal Area Forecast
KY51 - Viroqua, Wisconsin
Updated at 1:35 AM GMT on November 22, 2014 (7:35 PM CST):
No TAF is currently available for this location.
Decoded:
No decoded TAF is available.
PIREP - Pilot Weather Report
KY51 - Viroqua, Wisconsin
Updated at 1:35 AM GMT on November 22, 2014 (7:35 PM CST):
No PIREP is currently available for this location.
AIRMET - Airmens Meteorological Information
KY51 - Viroqua, Wisconsin
Updated at 1:35 AM GMT on November 22, 2014 (7:35 PM CST):
No AIRMET is currently available for this location.
SIGMET - Significant Meteorological Information
KY51 - Viroqua, Wisconsin
Updated at 1:35 AM GMT on November 22, 2014 (7:35 PM CST):
No SIGMET is currently available for this location.
NOTAM - Notice to Airmen
KY51 - Viroqua, Wisconsin
Updated at 1:35 AM GMT on November 22, 2014 (7:35 PM CST):
No NOTAM is currently available for this location.
Forecast Area
KY51 - Viroqua, Wisconsin
Updated at 1:35 AM GMT on November 22, 2014 (7:35 PM CST):
No NOTAM is currently available for this location.
Aviation Weather Maps